sensor_id;sensor_type;location;lat;lon;timestamp;P1;durP1;ratioP1;P2;durP2;ratioP2
51866;SDS011;52862;52.504;13.480;2023-08-06T17:20:59;5.93;;;2.87;;
51866;SDS011;52862;52.504;13.480;2023-08-06T17:23:26;6.43;;;3.00;;
51866;SDS011;52862;52.504;13.480;2023-08-06T17:26:08;4.67;;;3.00;;
51866;SDS011;52862;52.504;13.480;2023-08-06T17:28:49;7.07;;;3.00;;
51866;SDS011;52862;52.504;13.480;2023-08-06T17:31:28;6.67;;;3.03;;
51866;SDS011;52862;52.504;13.480;2023-08-06T17:33:55;9.93;;;2.90;;
51866;SDS011;52862;52.504;13.480;2023-08-06T17:36:23;7.47;;;3.13;;
51866;SDS011;52862;52.504;13.480;2023-08-06T17:38:49;13.37;;;3.30;;
51866;SDS011;52862;52.504;13.480;2023-08-06T17:41:16;6.90;;;3.20;;
51866;SDS011;52862;52.504;13.480;2023-08-06T17:43:44;10.00;;;3.50;;
51866;SDS011;52862;52.504;13.480;2023-08-06T17:46:10;6.43;;;3.43;;
51866;SDS011;52862;52.504;13.480;2023-08-06T17:48:38;8.57;;;3.20;;
51866;SDS011;52862;52.504;13.480;2023-08-06T17:51:05;6.43;;;3.17;;
51866;SDS011;52862;52.504;13.480;2023-08-06T17:53:32;17.37;;;4.73;;
51866;SDS011;52862;52.504;13.480;2023-08-06T17:55:59;9.23;;;4.40;;
51866;SDS011;52862;52.504;13.480;2023-08-06T17:58:26;10.17;;;3.50;;
51866;SDS011;52862;52.504;13.480;2023-08-06T18:00:53;9.93;;;4.10;;
51866;SDS011;52862;52.504;13.480;2023-08-06T18:03:21;13.40;;;4.13;;
51866;SDS011;52862;52.504;13.480;2023-08-06T18:05:53;8.80;;;3.73;;
51866;SDS011;52862;52.504;13.480;2023-08-06T18:08:21;7.93;;;4.07;;
51866;SDS011;52862;52.504;13.480;2023-08-06T18:10:48;12.37;;;3.60;;
51866;SDS011;52862;52.504;13.480;2023-08-06T18:13:15;7.80;;;3.30;;
51866;SDS011;52862;52.504;13.480;2023-08-06T18:15:42;6.47;;;3.50;;
51866;SDS011;52862;52.504;13.480;2023-08-06T18:18:09;8.93;;;3.23;;
51866;SDS011;52862;52.504;13.480;2023-08-06T18:20:36;6.87;;;3.70;;
51866;SDS011;52862;52.504;13.480;2023-08-06T18:23:03;12.63;;;3.53;;
51866;SDS011;52862;52.504;13.480;2023-08-06T18:25:31;11.23;;;3.80;;
51866;SDS011;52862;52.504;13.480;2023-08-06T18:27:59;8.60;;;3.53;;
51866;SDS011;52862;52.504;13.480;2023-08-06T18:30:26;8.67;;;3.73;;
51866;SDS011;52862;52.504;13.480;2023-08-06T18:32:53;9.03;;;3.40;;
51866;SDS011;52862;52.504;13.480;2023-08-06T18:35:21;8.63;;;3.60;;
51866;SDS011;52862;52.504;13.480;2023-08-06T18:37:48;8.73;;;3.87;;
51866;SDS011;52862;52.504;13.480;2023-08-06T18:40:15;7.83;;;3.93;;
51866;SDS011;52862;52.504;13.480;2023-08-06T18:42:42;18.57;;;4.17;;
51866;SDS011;52862;52.504;13.480;2023-08-06T18:45:10;9.23;;;3.17;;
51866;SDS011;52862;52.504;13.480;2023-08-06T18:47:37;9.90;;;3.63;;
51866;SDS011;52862;52.504;13.480;2023-08-06T18:50:04;14.70;;;3.67;;
51866;SDS011;52862;52.504;13.480;2023-08-06T18:52:31;10.30;;;3.60;;
51866;SDS011;52862;52.504;13.480;2023-08-06T18:54:58;11.13;;;3.30;;
51866;SDS011;52862;52.504;13.480;2023-08-06T18:57:25;16.30;;;4.13;;
51866;SDS011;52862;52.504;13.480;2023-08-06T18:59:54;10.17;;;3.93;;
51866;SDS011;52862;52.504;13.480;2023-08-06T19:02:22;12.37;;;3.80;;
51866;SDS011;52862;52.504;13.480;2023-08-06T19:04:49;8.70;;;3.80;;
51866;SDS011;52862;52.504;13.480;2023-08-06T19:07:16;12.63;;;4.10;;
51866;SDS011;52862;52.504;13.480;2023-08-06T19:09:43;7.90;;;4.33;;
51866;SDS011;52862;52.504;13.480;2023-08-06T19:12:12;7.47;;;4.10;;
51866;SDS011;52862;52.504;13.480;2023-08-06T19:14:39;9.27;;;4.17;;
51866;SDS011;52862;52.504;13.480;2023-08-06T19:17:07;11.40;;;4.50;;
51866;SDS011;52862;52.504;13.480;2023-08-06T19:19:35;14.77;;;4.00;;
51866;SDS011;52862;52.504;13.480;2023-08-06T19:22:02;13.10;;;4.97;;
51866;SDS011;52862;52.504;13.480;2023-08-06T19:24:33;11.80;;;4.40;;
51866;SDS011;52862;52.504;13.480;2023-08-06T19:27:03;11.70;;;4.70;;
51866;SDS011;52862;52.504;13.480;2023-08-06T19:29:30;13.67;;;4.53;;
51866;SDS011;52862;52.504;13.480;2023-08-06T19:32:01;14.13;;;5.03;;
51866;SDS011;52862;52.504;13.480;2023-08-06T19:34:33;7.43;;;4.07;;
51866;SDS011;52862;52.504;13.480;2023-08-06T19:37:20;15.03;;;5.67;;
51866;SDS011;52862;52.504;13.480;2023-08-06T19:39:56;12.70;;;4.50;;
51866;SDS011;52862;52.504;13.480;2023-08-06T19:42:33;12.60;;;5.27;;
51866;SDS011;52862;52.504;13.480;2023-08-06T19:45:08;13.13;;;4.33;;
51866;SDS011;52862;52.504;13.480;2023-08-06T19:47:40;7.53;;;4.30;;
51866;SDS011;52862;52.504;13.480;2023-08-06T19:50:27;17.67;;;5.20;;
51866;SDS011;52862;52.504;13.480;2023-08-06T19:52:58;9.43;;;5.20;;
51866;SDS011;52862;52.504;13.480;2023-08-06T19:55:29;16.53;;;5.17;;
51866;SDS011;52862;52.504;13.480;2023-08-06T19:58:14;16.23;;;5.07;;
51866;SDS011;52862;52.504;13.480;2023-08-06T20:00:47;16.90;;;5.17;;
51866;SDS011;52862;52.504;13.480;2023-08-06T20:03:21;12.03;;;4.90;;
51866;SDS011;52862;52.504;13.480;2023-08-06T20:06:13;11.53;;;6.33;;
51866;SDS011;52862;52.504;13.480;2023-08-06T20:08:54;13.90;;;4.47;;
51866;SDS011;52862;52.504;13.480;2023-08-06T20:11:35;9.33;;;4.30;;
51866;SDS011;52862;52.504;13.480;2023-08-06T20:14:15;10.20;;;4.60;;
51866;SDS011;52862;52.504;13.480;2023-08-06T20:19:41;17.17;;;4.90;;
51866;SDS011;52862;52.504;13.480;2023-08-06T20:22:11;17.87;;;4.37;;
51866;SDS011;52862;52.504;13.480;2023-08-06T20:24:43;13.53;;;4.50;;
51866;SDS011;52862;52.504;13.480;2023-08-06T20:27:13;9.60;;;4.30;;
51866;SDS011;52862;52.504;13.480;2023-08-06T20:29:56;10.43;;;3.77;;
51866;SDS011;52862;52.504;13.480;2023-08-06T20:32:42;8.77;;;3.63;;
51866;SDS011;52862;52.504;13.480;2023-08-06T20:35:46;8.33;;;4.00;;
51866;SDS011;52862;52.504;13.480;2023-08-06T20:42:17;12.73;;;4.67;;
51866;SDS011;52862;52.504;13.480;2023-08-06T20:44:48;19.77;;;5.50;;
51866;SDS011;52862;52.504;13.480;2023-08-06T20:47:36;9.73;;;4.03;;
51866;SDS011;52862;52.504;13.480;2023-08-06T20:50:05;17.23;;;6.80;;
51866;SDS011;52862;52.504;13.480;2023-08-06T20:52:35;14.03;;;4.70;;
51866;SDS011;52862;52.504;13.480;2023-08-06T20:55:07;9.77;;;4.63;;
51866;SDS011;52862;52.504;13.480;2023-08-06T20:57:45;10.50;;;4.87;;
51866;SDS011;52862;52.504;13.480;2023-08-06T21:00:15;8.57;;;4.47;;
51866;SDS011;52862;52.504;13.480;2023-08-06T21:02:45;14.13;;;4.40;;
51866;SDS011;52862;52.504;13.480;2023-08-06T21:05:38;12.37;;;4.50;;
51866;SDS011;52862;52.504;13.480;2023-08-06T21:08:21;9.37;;;4.17;;
51866;SDS011;52862;52.504;13.480;2023-08-06T21:10:51;11.10;;;3.60;;
51866;SDS011;52862;52.504;13.480;2023-08-06T21:13:22;6.97;;;3.57;;
51866;SDS011;52862;52.504;13.480;2023-08-06T21:15:54;13.90;;;3.90;;
51866;SDS011;52862;52.504;13.480;2023-08-06T21:18:27;8.50;;;3.27;;
